ESSD

Borlange Airport

Sweden
METAR ESSD 211520Z 00000KT 9999 OVC020 M10/M10 Q1015
Observed Flight Rules
Jan-21 @ 15:20 UTC (37 minutes ago) Marginal Visual Flight Rules
Visibility Clouds
10,000+ meters
  • Overcast at 2,000' AGL
Temperatures Readings
Current -10°C / 14°F
Dewpoint -10°C / 14°F
Humidity 100%
Altimeter 29.97" Hg
Pressure 1014.92 hPa
Elevation 161
METAR ESSD 211520Z 00000KT 9999 OVC020 M10/M10 Q1015
Observed Flight Rules
Jan-21 @ 15:20 UTC
(37 minutes ago)
MVFR
Clouds
  • Overcast at 2,000' AGL
Temperature Dewpoint
-10°C / 14°F -10°C / 14°F
Humidity Altimeter Pressure
100% 29.97" Hg 1014.92 hPa